Time;durP1;ratioP1;P1;durP2;ratioP2;P2;SDS_P1;SDS_P2;PMS_P1;PMS_P2;Temp;Humidity;BMP_temperature;BMP_pressure;BME280_temperature;BME280_humidity;BME280_pressure;Samples;Min_cycle;Max_cycle;Signal;HPM_P1;HPM_P2
2024/01/18 00:00:34;;;;;;;;;19.00;17.00;;;;;19.08;39.75;98014.55;33891;1262;20201;-68
2024/01/18 00:01:41;;;;;;;;;22.00;16.00;;;;;19.09;39.72;98018.02;33884;1253;22119;-68
2024/01/18 00:02:29;;;;;;;;;19.00;18.00;;;;;19.09;39.55;98013.59;33868;1269;22085;-68
2024/01/18 00:03:16;;;;;;;;;20.00;17.00;;;;;19.09;39.94;98014.13;33884;1269;19497;-69
2024/01/18 00:04:04;;;;;;;;;17.00;16.00;;;;;19.10;39.66;98014.58;33876;1269;19650;-70
2024/01/18 00:04:51;;;;;;;;;24.00;18.00;;;;;19.10;39.47;98014.58;33878;1269;22773;-69
2024/01/18 00:05:39;;;;;;;;;18.50;17.00;;;;;19.09;39.39;98012.21;33871;1253;18138;-69
2024/01/18 00:06:27;;;;;;;;;;;;;;;19.09;39.56;98010.17;33884;1269;19493;-69
2024/01/18 00:07:14;;;;;;;;;17.00;16.00;;;;;19.08;39.59;98013.43;33889;1269;18849;-69
2024/01/18 00:08:02;;;;;;;;;18.50;17.00;;;;;19.08;39.45;98011.77;33894;1269;18094;-69
2024/01/18 00:08:49;;;;;;;;;22.00;19.00;;;;;19.09;39.30;98011.52;33870;1269;18277;-69
2024/01/18 00:09:36;;;;;;;;;18.50;17.50;;;;;19.10;39.27;98011.45;33901;1269;19465;-69
2024/01/18 00:10:26;;;;;;;;;20.00;16.00;;;;;19.08;39.43;98007.98;33888;1269;19470;-69
2024/01/18 00:11:14;;;;;;;;;20.00;18.00;;;;;19.08;39.43;98007.50;33900;1269;19491;-69
2024/01/18 00:12:02;;;;;;;;;16.33;16.00;;;;;19.06;39.29;98008.48;33886;1269;18148;-69
2024/01/18 00:12:49;;;;;;;;;18.00;17.00;;;;;19.06;39.34;98006.95;33866;1254;21564;-69
2024/01/18 00:13:36;;;;;;;;;19.50;17.00;;;;;19.05;39.51;98002.52;33885;1269;19956;-69
2024/01/18 00:14:24;;;;;;;;;20.00;18.00;;;;;19.05;39.34;98004.67;33881;1253;19885;-69
2024/01/18 00:15:11;;;;;;;;;20.00;18.00;;;;;19.03;39.46;98003.20;33877;1269;19535;-69
2024/01/18 00:15:59;;;;;;;;;19.00;17.00;;;;;19.02;39.37;98003.95;33922;1269;18158;-69
2024/01/18 00:16:46;;;;;;;;;23.00;20.00;;;;;19.01;39.40;98003.81;33892;1269;19475;-70
2024/01/18 00:17:34;;;;;;;;;21.00;17.00;;;;;19.01;39.59;98006.21;33898;1269;19683;-70
2024/01/18 00:18:21;;;;;;;;;17.00;16.00;;;;;19.02;39.33;98006.63;33894;1269;18075;-70
2024/01/18 00:19:08;;;;;;;;;21.50;18.00;;;;;19.01;39.47;98006.15;33885;1269;19477;-68
2024/01/18 00:19:56;;;;;;;;;20.50;16.50;;;;;19.01;39.63;98004.05;33898;1269;18131;-69
2024/01/18 00:20:43;;;;;;;;;17.00;16.00;;;;;19.00;39.82;98005.48;33904;1269;19514;-69
2024/01/18 00:21:31;;;;;;;;;16.00;16.00;;;;;19.00;39.68;98002.23;33895;1254;19561;-69
2024/01/18 00:22:18;;;;;;;;;17.00;14.00;;;;;18.99;39.71;98001.88;33877;1269;18158;-69
2024/01/18 00:23:06;;;;;;;;;17.50;17.00;;;;;18.99;39.79;98002.78;33881;1254;19593;-69
2024/01/18 00:23:53;;;;;;;;;16.00;14.00;;;;;18.98;39.95;98001.69;33884;1263;22929;-69
2024/01/18 00:24:40;;;;;;;;;16.00;16.00;;;;;18.98;40.02;98004.91;33876;1254;19542;-68
2024/01/18 00:25:28;;;;;;;;;16.00;16.00;;;;;18.98;40.16;98008.39;33896;1269;21454;-70
2024/01/18 00:26:15;;;;;;;;;17.00;17.00;;;;;18.97;40.07;98011.31;33882;1253;19497;-69
2024/01/18 00:27:03;;;;;;;;;19.50;17.50;;;;;18.96;40.08;98012.84;33881;1253;23169;-70
2024/01/18 00:27:50;;;;;;;;;16.00;16.00;;;;;18.96;40.18;98015.29;33896;1269;18124;-70
2024/01/18 00:28:37;;;;;;;;;22.00;18.00;;;;;18.95;40.05;98014.24;33886;1269;19495;-70
2024/01/18 00:29:25;;;;;;;;;16.00;16.00;;;;;18.94;40.39;98018.23;33881;1262;18091;-70
2024/01/18 00:30:13;;;;;;;;;16.00;16.00;;;;;18.93;40.51;98017.05;33854;1263;19419;-70
2024/01/18 00:31:00;;;;;;;;;14.00;14.00;;;;;18.93;40.49;98016.41;33839;1262;18132;-70
2024/01/18 00:31:48;;;;;;;;;16.00;14.00;;;;;18.92;40.53;98016.08;33861;1269;18230;-70
2024/01/18 00:32:35;;;;;;;;;22.33;17.00;;;;;18.91;40.57;98016.58;33876;1269;19685;-70
2024/01/18 00:33:22;;;;;;;;;17.00;16.00;;;;;18.92;40.76;98015.66;33878;1269;19509;-70
2024/01/18 00:34:10;;;;;;;;;16.00;14.00;;;;;18.92;40.60;98015.98;33882;1253;19478;-70
2024/01/18 00:34:57;;;;;;;;;16.33;15.00;;;;;18.92;40.49;98016.29;33875;1269;18138;-70
2024/01/18 00:35:45;;;;;;;;;21.33;16.67;;;;;18.92;40.67;98015.81;33893;1253;19604;-70
2024/01/18 00:36:32;;;;;;;;;16.67;14.00;;;;;18.92;40.67;98015.68;33854;1269;19487;-69
2024/01/18 00:37:19;;;;;;;;;16.00;14.00;;;;;18.92;40.65;98015.84;33863;1269;21876;-69
2024/01/18 00:38:07;;;;;;;;;16.00;14.00;;;;;18.93;40.60;98012.69;33881;1254;21123;-69
2024/01/18 00:38:54;;;;;;;;;20.00;17.00;;;;;18.92;40.80;98016.06;33860;1256;19562;-69
2024/01/18 00:39:42;;;;;;;;;12.00;10.00;;;;;18.92;40.87;98013.04;33864;1269;19979;-70
2024/01/18 00:40:29;;;;;;;;;17.50;15.00;;;;;18.92;40.76;98015.82;33871;1253;19513;-70
2024/01/18 00:41:17;;;;;;;;;15.00;13.00;;;;;18.92;40.63;98013.67;33871;1269;18141;-70
2024/01/18 00:42:04;;;;;;;;;16.00;16.00;;;;;18.92;40.81;98015.75;33883;1253;19533;-70
2024/01/18 00:42:51;;;;;;;;;13.00;13.00;;;;;18.91;40.89;98016.27;33855;1269;21586;-70
2024/01/18 00:43:39;;;;;;;;;13.00;12.00;;;;;18.91;40.91;98014.86;33866;1269;22262;-70
2024/01/18 00:44:27;;;;;;;;;13.00;12.00;;;;;18.91;40.80;98017.89;33862;1253;19558;-69
2024/01/18 00:45:14;;;;;;;;;15.00;14.00;;;;;18.91;40.83;98016.77;33877;1269;18462;-70
2024/01/18 00:46:02;;;;;;;;;17.00;14.25;;;;;18.91;40.63;98017.32;33876;1269;18126;-70
2024/01/18 00:46:49;;;;;;;;;13.33;13.33;;;;;18.91;40.64;98019.42;33878;1253;18093;-70
2024/01/18 00:47:36;;;;;;;;;14.00;12.50;;;;;18.90;40.67;98020.80;33862;1269;19496;-69
2024/01/18 00:48:24;;;;;;;;;17.50;16.00;;;;;18.90;40.85;98016.75;33879;1253;19607;-69
2024/01/18 00:49:11;;;;;;;;;16.67;13.33;;;;;18.90;40.65;98019.08;33876;1253;19628;-69
2024/01/18 00:49:59;;;;;;;;;17.00;16.00;;;;;18.90;40.86;98016.05;33881;1254;19647;-70
2024/01/18 00:50:46;;;;;;;;;10.00;10.00;;;;;18.90;40.85;98017.36;33853;1269;19794;-69
2024/01/18 00:51:34;;;;;;;;;13.00;13.00;;;;;18.90;40.87;98016.97;33890;1253;18144;-70
2024/01/18 00:52:21;;;;;;;;;10.00;10.00;;;;;18.90;40.66;98015.89;33874;1262;18114;-70
2024/01/18 00:53:09;;;;;;;;;13.50;12.50;;;;;18.89;40.85;98012.77;33856;1269;18097;-69
2024/01/18 00:53:56;;;;;;;;;13.50;12.50;;;;;18.89;40.64;98015.64;33883;1269;19446;-69
2024/01/18 00:54:44;;;;;;;;;12.33;12.00;;;;;18.89;40.70;98016.08;33848;1253;19456;-69
2024/01/18 00:55:31;;;;;;;;;12.00;10.00;;;;;18.88;40.94;98016.69;33903;1263;18100;-69
2024/01/18 00:56:18;;;;;;;;;12.00;10.00;;;;;18.88;40.80;98016.11;33883;1269;19478;-69
2024/01/18 00:57:06;;;;;;;;;15.00;12.00;;;;;18.88;40.74;98017.91;33867;1262;21014;-70
2024/01/18 00:57:53;;;;;;;;;12.00;12.00;;;;;18.88;40.75;98019.14;33881;1269;19942;-70
2024/01/18 00:58:41;;;;;;;;;10.00;9.33;;;;;18.87;40.63;98014.77;33862;1253;22718;-70
2024/01/18 00:59:28;;;;;;;;;13.00;12.00;;;;;18.88;40.67;98016.18;33879;1253;20605;-69
2024/01/18 01:00:16;;;;;;;;;16.00;13.00;;;;;18.87;40.90;98015.54;33885;1263;22586;-68
2024/01/18 01:01:03;;;;;;;;;16.00;13.00;;;;;18.87;40.83;98017.71;33879;1269;20780;-69
2024/01/18 01:01:50;;;;;;;;;14.00;13.00;;;;;18.87;40.86;98016.09;33867;1269;22016;-69
2024/01/18 01:02:38;;;;;;;;;15.50;12.00;;;;;18.87;40.89;98022.70;33853;1269;22636;-69
2024/01/18 01:03:25;;;;;;;;;13.50;12.50;;;;;18.87;40.78;98020.05;33886;1269;18142;-69
2024/01/18 01:04:13;;;;;;;;;13.50;13.00;;;;;18.87;40.96;98022.38;33865;1269;19477;-69
2024/01/18 01:05:00;;;;;;;;;18.50;15.00;;;;;18.88;40.86;98021.48;33888;1269;18137;-69
2024/01/18 01:05:47;;;;;;;;;17.00;15.00;;;;;18.89;40.47;98020.35;33857;1269;18142;-69
2024/01/18 01:06:35;;;;;;;;;16.00;16.00;;;;;18.92;40.54;98023.41;33866;1253;19390;-69
2024/01/18 01:07:22;;;;;;;;;15.67;15.67;;;;;18.93;40.53;98025.25;33881;1253;19568;-68
2024/01/18 01:08:10;;;;;;;;;16.33;14.33;;;;;18.96;40.34;98025.12;33853;1256;19546;-69
2024/01/18 01:08:57;;;;;;;;;16.00;14.00;;;;;18.98;40.46;98024.45;33871;1269;18433;-69
2024/01/18 01:09:45;;;;;;;;;14.00;14.00;;;;;18.99;40.62;98024.50;33883;1263;18149;-69
2024/01/18 01:10:32;;;;;;;;;14.00;13.00;;;;;19.01;40.40;98022.80;33862;1263;18140;-67
2024/01/18 01:11:19;;;;;;;;;14.00;13.50;;;;;19.03;40.45;98021.23;33871;1269;19613;-69
2024/01/18 01:12:08;;;;;;;;;17.50;15.50;;;;;19.05;40.29;98019.70;33866;1256;21920;-69
2024/01/18 01:12:55;;;;;;;;;14.00;13.00;;;;;19.07;40.18;98019.41;33882;1269;21445;-69
2024/01/18 01:13:43;;;;;;;;;16.50;15.00;;;;;19.07;40.30;98019.44;33859;1269;19498;-68
2024/01/18 01:14:30;;;;;;;;;13.00;13.00;;;;;19.09;40.32;98021.80;33873;1269;21436;-68
2024/01/18 01:15:18;;;;;;;;;19.00;16.50;;;;;19.10;40.23;98018.27;33875;1269;18135;-69
2024/01/18 01:16:06;;;;;;;;;16.00;14.00;;;;;19.12;40.12;98020.70;33867;1269;18112;-69
2024/01/18 01:16:53;;;;;;;;;13.00;12.50;;;;;19.12;40.23;98017.27;33867;1253;19920;-69
2024/01/18 01:17:41;;;;;;;;;16.00;14.00;;;;;19.11;40.01;98021.59;33887;1269;19489;-69
2024/01/18 01:18:28;;;;;;;;;17.50;16.50;;;;;19.12;40.07;98023.31;33882;1269;18148;-68
2024/01/18 01:19:15;;;;;;;;;15.00;14.00;;;;;19.11;40.14;98022.67;33902;1269;19491;-68
2024/01/18 01:20:03;;;;;;;;;13.50;13.50;;;;;19.12;40.25;98025.87;33907;1254;19471;-68
2024/01/18 01:20:50;;;;;;;;;16.00;13.00;;;;;19.12;40.27;98026.10;33893;1269;19490;-68
2024/01/18 01:21:38;;;;;;;;;12.00;12.00;;;;;19.10;40.14;98025.02;33884;1253;19605;-68
2024/01/18 01:22:25;;;;;;;;;16.00;13.00;;;;;19.10;40.13;98023.39;33880;1269;18144;-69
2024/01/18 01:23:13;;;;;;;;;12.00;12.00;;;;;19.10;40.17;98023.64;33849;1269;22632;-68
2024/01/18 01:24:00;;;;;;;;;14.00;14.00;;;;;19.09;40.27;98026.39;33852;1253;19938;-69
2024/01/18 01:24:47;;;;;;;;;16.50;13.00;;;;;19.09;40.32;98024.21;33871;1269;18283;-68
2024/01/18 01:25:35;;;;;;;;;17.00;16.00;;;;;19.08;40.38;98025.65;33868;1269;18131;-68
2024/01/18 01:26:22;;;;;;;;;16.00;14.00;;;;;19.08;40.20;98025.34;33887;1253;19499;-68
2024/01/18 01:27:10;;;;;;;;;17.00;16.00;;;;;19.07;40.19;98026.08;33900;1256;19564;-68
2024/01/18 01:27:57;;;;;;;;;14.00;13.00;;;;;19.07;40.14;98023.81;33873;1269;19441;-68
2024/01/18 01:28:45;;;;;;;;;20.00;17.00;;;;;19.06;40.32;98025.31;33873;1269;19486;-68
2024/01/18 01:29:32;;;;;;;;;14.50;13.50;;;;;19.05;40.19;98022.57;33907;1254;19713;-68
2024/01/18 01:30:20;;;;;;;;;14.00;14.00;;;;;19.04;40.07;98018.48;33885;1269;19682;-69
2024/01/18 01:31:07;;;;;;;;;17.00;16.00;;;;;19.03;40.06;98021.33;33851;1254;18230;-68
2024/01/18 01:31:54;;;;;;;;;;;;;;;19.01;40.33;98016.67;33893;1269;21044;-68
2024/01/18 01:32:42;;;;;;;;;16.00;13.00;;;;;19.01;40.12;98017.00;33877;1253;17574;-68
2024/01/18 01:33:29;;;;;;;;;14.00;13.33;;;;;19.00;40.38;98013.95;33917;1269;21907;-68
2024/01/18 01:34:17;;;;;;;;;17.00;16.00;;;;;19.00;40.10;98015.25;33866;1269;18190;-68
2024/01/18 01:35:05;;;;;;;;;17.00;13.50;;;;;19.00;40.38;98015.09;33868;1269;18121;-69
2024/01/18 01:35:52;;;;;;;;;13.00;13.00;;;;;19.00;40.15;98014.77;33867;1269;21554;-68
2024/01/18 01:36:40;;;;;;;;;16.00;13.00;;;;;19.00;40.21;98016.88;33872;1269;19702;-68
2024/01/18 01:37:27;;;;;;;;;16.50;14.00;;;;;18.99;40.15;98016.42;33875;1269;21906;-69
2024/01/18 01:38:15;;;;;;;;;14.00;14.00;;;;;18.98;40.47;98017.17;33883;1269;18549;-68
2024/01/18 01:39:03;;;;;;;;;12.00;12.00;;;;;18.97;40.41;98018.61;33873;1269;18121;-69
2024/01/18 01:39:51;;;;;;;;;12.00;12.00;;;;;18.96;40.45;98022.05;33874;1269;21441;-68
2024/01/18 01:40:38;;;;;;;;;13.00;13.00;;;;;18.96;40.44;98020.40;33863;1262;21868;-68
2024/01/18 01:41:25;;;;;;;;;14.00;13.00;;;;;18.94;40.63;98025.22;33873;1253;21477;-69
2024/01/18 01:42:13;;;;;;;;;14.00;13.00;;;;;18.93;40.55;98027.35;33870;1269;19401;-68
2024/01/18 01:43:00;;;;;;;;;14.00;14.00;;;;;18.93;40.37;98027.27;33870;1269;18500;-69
2024/01/18 01:43:48;;;;;;;;;14.00;14.00;;;;;18.93;40.55;98030.81;33887;1269;19480;-69
2024/01/18 01:44:35;;;;;;;;;16.50;14.00;;;;;18.92;40.77;98029.79;33886;1263;18115;-68
2024/01/18 01:45:22;;;;;;;;;14.00;14.00;;;;;18.92;40.61;98028.23;33870;1253;19537;-69
2024/01/18 01:46:10;;;;;;;;;15.00;13.00;;;;;18.91;40.65;98030.12;33862;1253;21953;-69
2024/01/18 01:46:57;;;;;;;;;15.00;13.50;;;;;18.90;40.60;98032.39;33856;1254;20672;-69
2024/01/18 01:47:45;;;;;;;;;12.00;12.00;;;;;18.89;40.88;98027.48;33868;1269;20797;-69
2024/01/18 01:48:32;;;;;;;;;12.00;12.00;;;;;18.89;40.57;98030.44;33873;1269;19889;-69
2024/01/18 01:49:20;;;;;;;;;13.50;12.50;;;;;18.89;40.77;98030.05;33880;1269;18122;-69
2024/01/18 01:50:08;;;;;;;;;13.50;12.50;;;;;18.89;40.65;98034.02;33880;1269;22088;-69
2024/01/18 01:50:55;;;;;;;;;14.00;13.00;;;;;18.89;40.96;98030.05;33878;1269;18389;-69
2024/01/18 01:51:43;;;;;;;;;16.00;14.00;;;;;18.89;40.82;98031.27;33868;1269;19816;-69
2024/01/18 01:52:30;;;;;;;;;15.00;13.00;;;;;18.89;40.87;98030.95;33884;1269;19941;-69
2024/01/18 01:53:18;;;;;;;;;14.00;13.00;;;;;18.89;40.74;98032.90;33900;1269;19480;-69
2024/01/18 01:54:05;;;;;;;;;12.00;12.00;;;;;18.89;40.85;98033.12;33909;1253;19551;-69
2024/01/18 01:54:53;;;;;;;;;13.50;13.00;;;;;18.88;40.97;98033.73;33874;1269;18127;-69
2024/01/18 01:55:40;;;;;;;;;11.50;11.50;;;;;18.88;40.81;98037.85;33882;1269;19463;-69
2024/01/18 01:56:27;;;;;;;;;13.50;13.00;;;;;18.89;40.85;98036.92;33912;1269;19684;-69
2024/01/18 01:57:15;;;;;;;;;10.00;10.00;;;;;18.88;41.14;98037.85;33888;1269;18099;-69
2024/01/18 01:58:02;;;;;;;;;10.67;10.00;;;;;18.89;40.99;98037.45;33882;1254;19532;-69
2024/01/18 01:58:50;;;;;;;;;12.00;9.00;;;;;18.88;41.05;98040.20;33878;1269;19484;-69
2024/01/18 01:59:37;;;;;;;;;12.50;11.00;;;;;18.88;40.89;98042.92;33865;1269;19217;-69
2024/01/18 02:00:25;;;;;;;;;15.00;12.50;;;;;18.87;41.05;98039.35;33868;1269;21984;-69
2024/01/18 02:01:12;;;;;;;;;12.67;12.00;;;;;18.87;40.96;98040.23;33905;1269;19630;-69
2024/01/18 02:01:59;;;;;;;;;10.50;10.50;;;;;18.87;40.81;98038.77;33882;1253;22023;-69
2024/01/18 02:02:47;;;;;;;;;13.00;10.00;;;;;18.86;40.94;98045.51;33879;1269;18164;-69
2024/01/18 02:03:34;;;;;;;;;12.00;11.00;;;;;18.86;40.89;98042.64;33862;1269;21968;-70
2024/01/18 02:04:22;;;;;;;;;12.00;12.00;;;;;18.87;40.93;98040.08;33889;1253;20607;-70
2024/01/18 02:05:09;;;;;;;;;12.50;11.00;;;;;18.86;40.81;98043.62;33881;1263;18229;-70
2024/01/18 02:05:57;;;;;;;;;10.00;10.00;;;;;18.85;40.91;98044.37;33874;1254;19581;-70
2024/01/18 02:06:44;;;;;;;;;13.00;12.00;;;;;18.86;40.81;98045.63;33871;1269;19427;-70
2024/01/18 02:07:31;;;;;;;;;10.00;9.00;;;;;18.85;40.97;98043.28;33869;1253;19524;-70
2024/01/18 02:08:19;;;;;;;;;10.50;10.50;;;;;18.85;40.94;98043.34;33863;1269;19436;-70
2024/01/18 02:09:06;;;;;;;;;9.33;9.33;;;;;18.85;40.90;98041.10;33841;1254;19649;-70
2024/01/18 02:09:54;;;;;;;;;15.00;13.00;;;;;18.85;40.89;98044.36;33876;1269;19288;-70
2024/01/18 02:10:41;;;;;;;;;12.00;10.00;;;;;18.85;41.07;98040.56;33854;1263;18559;-70
2024/01/18 02:11:29;;;;;;;;;14.00;12.00;;;;;18.84;40.94;98039.45;33874;1253;19543;-70
2024/01/18 02:12:16;;;;;;;;;12.75;11.75;;;;;18.84;40.84;98040.59;33874;1269;18118;-69
2024/01/18 02:13:04;;;;;;;;;12.00;11.00;;;;;18.85;40.98;98038.14;33858;1269;22108;-69
2024/01/18 02:13:51;;;;;;;;;12.50;10.00;;;;;18.84;41.02;98038.20;33849;1263;23164;-69
2024/01/18 02:14:39;;;;;;;;;8.00;8.00;;;;;18.85;40.81;98037.05;33854;1269;22128;-69
2024/01/18 02:15:26;;;;;;;;;13.00;10.00;;;;;18.84;41.00;98037.82;33864;1269;21257;-70
2024/01/18 02:16:13;;;;;;;;;10.00;10.00;;;;;18.84;41.02;98035.81;33887;1269;19459;-70
2024/01/18 02:17:01;;;;;;;;;14.00;13.00;;;;;18.84;41.08;98040.45;33858;1269;18100;-70
2024/01/18 02:17:49;;;;;;;;;13.00;12.00;;;;;18.84;40.72;98038.91;33859;1269;22082;-70
2024/01/18 02:18:36;;;;;;;;;;;;;;;18.84;40.74;98033.92;33873;1269;19498;-69
2024/01/18 02:19:24;;;;;;;;;16.00;15.00;;;;;18.86;40.91;98035.33;33864;1269;18907;-70
2024/01/18 02:20:11;;;;;;;;;15.00;13.00;;;;;18.88;40.85;98035.10;33877;1253;19565;-69
2024/01/18 02:20:59;;;;;;;;;15.50;14.00;;;;;18.91;40.71;98033.37;33887;1269;19490;-69
2024/01/18 02:21:46;;;;;;;;;;;;;;;18.93;40.58;98033.17;33869;1269;21845;-69
2024/01/18 02:22:34;;;;;;;;;19.00;16.00;;;;;18.95;40.68;98035.43;33880;1269;22003;-70
2024/01/18 02:23:21;;;;;;;;;14.67;13.33;;;;;18.98;40.49;98031.66;33852;1254;21413;-69
2024/01/18 02:24:08;;;;;;;;;13.00;13.00;;;;;18.98;40.49;98034.84;33861;1269;19457;-70
2024/01/18 02:24:56;;;;;;;;;15.00;13.00;;;;;19.00;40.59;98039.27;33874;1269;18097;-70
2024/01/18 02:25:43;;;;;;;;;15.00;14.00;;;;;19.01;40.61;98039.56;33835;1263;18291;-70
2024/01/18 02:26:31;;;;;;;;;16.00;13.50;;;;;19.03;40.30;98041.02;33833;1269;18525;-68
2024/01/18 02:27:19;;;;;;;;;14.00;14.00;;;;;19.05;40.59;98043.14;33865;1269;19474;-69
2024/01/18 02:28:07;;;;;;;;;16.00;13.00;;;;;19.07;40.46;98045.73;33841;1269;21799;-70
2024/01/18 02:28:55;;;;;;;;;16.00;12.00;;;;;19.08;40.59;98047.65;33846;1269;20634;-69
2024/01/18 02:29:42;;;;;;;;;17.00;13.00;;;;;19.08;40.12;98048.89;33852;1269;18531;-70
2024/01/18 02:30:30;;;;;;;;;14.00;12.33;;;;;19.09;40.26;98050.05;33865;1269;19440;-70
2024/01/18 02:31:17;;;;;;;;;14.00;13.00;;;;;19.08;40.49;98050.23;33844;1263;19805;-70
2024/01/18 02:32:05;;;;;;;;;13.00;12.00;;;;;19.09;40.25;98051.83;33877;1269;19442;-70
2024/01/18 02:32:52;;;;;;;;;14.00;13.00;;;;;19.09;40.39;98055.84;33888;1269;19456;-69
2024/01/18 02:33:39;;;;;;;;;17.00;15.00;;;;;19.09;40.38;98056.02;33878;1269;21156;-70
2024/01/18 02:34:27;;;;;;;;;13.00;12.67;;;;;19.11;40.24;98058.08;33863;1269;18120;-68
2024/01/18 02:35:14;;;;;;;;;16.00;13.00;;;;;19.10;40.44;98058.76;33893;1269;19470;-69
2024/01/18 02:36:02;;;;;;;;;13.50;12.50;;;;;19.08;40.50;98055.27;33860;1269;18128;-68
2024/01/18 02:36:49;;;;;;;;;16.33;14.67;;;;;19.08;40.60;98055.88;33879;1269;18128;-69
2024/01/18 02:37:37;;;;;;;;;17.00;13.00;;;;;19.07;40.34;98052.60;33879;1269;19525;-69
2024/01/18 02:38:24;;;;;;;;;15.00;14.00;;;;;19.08;40.22;98052.95;33879;1269;18165;-69
2024/01/18 02:39:11;;;;;;;;;13.00;13.00;;;;;19.07;40.28;98048.95;33862;1269;19627;-70
2024/01/18 02:39:59;;;;;;;;;13.00;13.00;;;;;19.07;40.25;98050.17;33868;1254;19603;-70
2024/01/18 02:40:46;;;;;;;;;14.00;13.00;;;;;19.05;40.40;98049.09;33894;1254;19582;-70
2024/01/18 02:41:34;;;;;;;;;16.00;13.00;;;;;19.05;40.26;98045.36;33876;1269;19523;-70
2024/01/18 02:42:21;;;;;;;;;12.00;11.50;;;;;19.04;40.39;98044.08;33874;1253;20888;-69
2024/01/18 02:43:08;;;;;;;;;10.00;10.00;;;;;19.04;40.31;98042.08;33868;1269;19537;-70
2024/01/18 02:43:56;;;;;;;;;16.00;14.00;;;;;19.04;40.42;98043.39;33868;1253;22007;-70
2024/01/18 02:44:44;;;;;;;;;16.00;15.00;;;;;19.03;40.18;98040.95;33871;1269;19455;-69
2024/01/18 02:45:31;;;;;;;;;13.00;13.00;;;;;19.02;40.19;98039.68;33883;1262;19767;-69
2024/01/18 02:46:18;;;;;;;;;14.00;12.50;;;;;19.01;40.26;98034.49;33861;1269;18147;-69
2024/01/18 02:47:06;;;;;;;;;14.00;13.00;;;;;19.00;40.46;98035.39;33858;1253;18132;-69
2024/01/18 02:47:53;;;;;;;;;12.50;12.50;;;;;18.98;40.49;98036.41;33844;1269;19384;-68
2024/01/18 02:48:41;;;;;;;;;12.50;10.00;;;;;18.98;40.41;98035.62;33845;1269;18190;-69
2024/01/18 02:49:28;;;;;;;;;16.00;14.50;;;;;18.98;40.46;98030.27;33883;1261;19833;-70
2024/01/18 02:50:15;;;;;;;;;14.00;14.00;;;;;18.97;40.28;98025.11;33866;1269;19693;-69
2024/01/18 02:51:04;;;;;;;;;13.50;13.00;;;;;18.96;40.39;98025.31;33871;1269;19442;-68
2024/01/18 02:51:52;;;;;;;;;13.00;13.00;;;;;18.95;40.36;98020.24;33871;1269;21559;-69
2024/01/18 02:52:39;;;;;;;;;13.00;12.00;;;;;18.95;40.36;98023.17;33867;1262;20604;-68
2024/01/18 02:53:26;;;;;;;;;16.50;15.00;;;;;18.95;40.28;98026.38;33852;1253;22130;-69
2024/01/18 02:54:14;;;;;;;;;12.00;12.00;;;;;18.94;40.42;98021.05;33880;1269;21983;-70
2024/01/18 02:55:01;;;;;;;;;15.50;13.00;;;;;18.94;40.51;98023.81;33874;1263;18164;-69
2024/01/18 02:55:49;;;;;;;;;13.00;11.00;;;;;18.94;40.48;98022.64;33849;1269;18115;-70
2024/01/18 02:56:37;;;;;;;;;14.00;13.00;;;;;18.93;40.43;98019.73;33864;1264;18125;-70
2024/01/18 02:57:25;;;;;;;;;14.00;13.00;;;;;18.92;40.54;98017.98;33909;1254;18122;-70
2024/01/18 02:58:12;;;;;;;;;14.00;13.00;;;;;18.91;40.37;98018.98;33885;1253;22935;-70
2024/01/18 02:59:00;;;;;;;;;12.00;12.00;;;;;18.91;40.49;98019.20;33895;1269;19831;-70
2024/01/18 02:59:48;;;;;;;;;16.00;13.00;;;;;18.90;40.53;98026.60;33884;1254;20877;-70
2024/01/18 03:00:35;;;;;;;;;14.67;14.00;;;;;18.90;40.65;98029.39;33898;1269;19484;-69
2024/01/18 03:01:23;;;;;;;;;16.00;13.00;;;;;18.89;40.41;98029.73;33889;1253;19486;-70
2024/01/18 03:02:10;;;;;;;;;13.00;12.00;;;;;18.88;40.38;98036.44;33906;1263;18162;-69
2024/01/18 03:02:57;;;;;;;;;14.00;13.00;;;;;18.87;40.53;98036.25;33901;1269;18091;-69
2024/01/18 03:03:45;;;;;;;;;13.00;12.50;;;;;18.87;40.82;98036.92;33889;1269;19822;-70
2024/01/18 03:04:32;;;;;;;;;11.00;11.00;;;;;18.87;40.60;98037.55;33881;1253;19569;-70
2024/01/18 03:05:20;;;;;;;;;13.00;12.00;;;;;18.88;40.86;98044.25;33891;1269;18120;-70
2024/01/18 03:06:07;;;;;;;;;12.33;12.00;;;;;18.87;40.70;98044.61;33876;1253;22163;-70
2024/01/18 03:06:55;;;;;;;;;8.00;8.00;;;;;18.87;40.82;98048.79;33893;1269;19467;-69
2024/01/18 03:07:42;;;;;;;;;12.50;12.00;;;;;18.87;40.76;98046.20;33891;1269;17854;-70
2024/01/18 03:08:29;;;;;;;;;16.00;12.75;;;;;18.87;40.81;98047.62;33897;1269;19419;-70
2024/01/18 03:09:17;;;;;;;;;15.00;13.00;;;;;18.86;40.96;98045.13;33884;1269;19446;-70
2024/01/18 03:10:04;;;;;;;;;13.00;12.50;;;;;18.87;40.96;98047.61;33900;1269;19475;-70
2024/01/18 03:10:52;;;;;;;;;;;;;;;18.86;40.88;98045.58;33890;1253;19592;-70
2024/01/18 03:11:39;;;;;;;;;12.00;10.00;;;;;18.86;40.93;98047.75;33910;1269;17464;-69
2024/01/18 03:12:26;;;;;;;;;9.50;9.50;;;;;18.86;40.98;98048.89;33909;1254;19624;-70
2024/01/18 03:13:14;;;;;;;;;12.00;12.00;;;;;18.86;40.99;98054.38;33901;1269;19240;-70
2024/01/18 03:14:02;;;;;;;;;13.00;10.00;;;;;18.86;40.75;98057.41;33900;1269;18310;-70
2024/01/18 03:14:49;;;;;;;;;13.50;12.00;;;;;18.86;40.99;98053.84;33911;1269;18181;-69
2024/01/18 03:15:36;;;;;;;;;15.00;12.00;;;;;18.85;40.71;98053.58;33901;1269;18139;-69
2024/01/18 03:16:24;;;;;;;;;10.00;9.00;;;;;18.85;40.87;98054.03;33908;1269;20837;-70
2024/01/18 03:17:11;;;;;;;;;14.67;13.33;;;;;18.84;40.93;98057.25;33892;1253;19821;-70
2024/01/18 03:17:59;;;;;;;;;15.00;12.00;;;;;18.84;40.97;98058.56;33878;1269;20735;-70
2024/01/18 03:18:47;;;;;;;;;12.00;12.00;;;;;18.84;40.79;98061.11;33893;1253;19583;-70
2024/01/18 03:19:35;;;;;;;;;13.67;12.33;;;;;18.83;40.95;98063.89;33890;1269;19555;-70
2024/01/18 03:20:23;;;;;;;;;12.00;12.00;;;;;18.84;41.06;98068.00;33909;1269;18082;-70
2024/01/18 03:21:11;;;;;;;;;13.00;12.00;;;;;18.83;40.83;98068.23;33893;1269;19502;-70
2024/01/18 03:21:58;;;;;;;;;10.00;10.00;;;;;18.83;40.76;98069.38;33883;1253;19696;-70
2024/01/18 03:22:46;;;;;;;;;15.00;12.00;;;;;18.83;40.73;98071.61;33901;1269;19530;-70
2024/01/18 03:23:33;;;;;;;;;13.00;13.00;;;;;18.83;40.95;98073.84;33902;1269;21392;-70
2024/01/18 03:24:20;;;;;;;;;12.00;12.00;;;;;18.82;41.00;98075.16;33911;1253;19553;-70
2024/01/18 03:25:08;;;;;;;;;13.00;12.50;;;;;18.82;40.78;98074.84;33903;1269;19839;-70
2024/01/18 03:25:55;;;;;;;;;13.00;12.00;;;;;18.82;40.88;98075.48;33906;1269;19487;-70
2024/01/18 03:26:43;;;;;;;;;10.00;10.00;;;;;18.82;40.85;98076.30;33887;1269;19460;-69
2024/01/18 03:27:30;;;;;;;;;16.00;13.00;;;;;18.82;41.04;98072.73;33877;1269;19469;-70
2024/01/18 03:28:17;;;;;;;;;13.00;12.00;;;;;18.81;40.95;98075.52;33887;1269;21348;-70
2024/01/18 03:29:06;;;;;;;;;15.00;12.50;;;;;18.82;40.96;98074.45;33869;1269;22153;-70
2024/01/18 03:29:53;;;;;;;;;12.00;12.00;;;;;18.82;40.68;98078.54;33962;1269;18104;-70
2024/01/18 03:30:40;;;;;;;;;15.67;14.67;;;;;18.81;40.66;98080.94;33964;1269;18100;-70
2024/01/18 03:31:28;;;;;;;;;17.00;14.67;;;;;18.81;41.03;98078.60;33921;1269;18088;-70
2024/01/18 03:32:15;;;;;;;;;;;;;;;18.81;40.98;98083.61;33960;1269;18115;-70
2024/01/18 03:33:03;;;;;;;;;16.00;14.00;;;;;18.81;40.88;98084.54;33925;1269;17570;-69
2024/01/18 03:33:50;;;;;;;;;13.00;12.00;;;;;18.81;40.77;98087.02;33940;1269;19483;-70
2024/01/18 03:34:38;;;;;;;;;14.33;13.33;;;;;18.81;40.88;98089.42;33942;1269;19535;-70
2024/01/18 03:35:25;;;;;;;;;12.00;12.00;;;;;18.81;40.98;98093.05;33925;1269;20789;-70
2024/01/18 03:36:13;;;;;;;;;15.00;13.00;;;;;18.81;40.87;98093.09;33931;1269;18084;-69
2024/01/18 03:37:00;;;;;;;;;19.00;16.00;;;;;18.83;40.69;98099.44;33935;1269;19474;-70
2024/01/18 03:37:48;;;;;;;;;16.00;14.00;;;;;18.85;40.88;98103.08;33924;1269;18128;-70
2024/01/18 03:38:35;;;;;;;;;18.00;17.00;;;;;18.85;40.65;98104.83;33930;1253;19441;-70
2024/01/18 03:39:22;;;;;;;;;21.00;17.00;;;;;18.89;40.49;98107.27;33946;1269;18153;-70